Time;durP1;ratioP1;P1;durP2;ratioP2;P2;SDS_P1;SDS_P2;PMS_P1;PMS_P2;Temp;Humidity;BMP_temperature;BMP_pressure;BME280_temperature;BME280_humidity;BME280_pressure;Samples;Min_cycle;Max_cycle;Signal;HPM_P1;HPM_P2
2023/04/08 00:01:10;;;;;;;2.55;1.05;;;;;;;;;;20839911;28;20045;-65
2023/04/08 00:11:12;;;;;;;7.32;2.00;;;;;;;;;;20837902;28;20049;-65
2023/04/08 00:21:16;;;;;;;5.15;1.48;;;;;;;;;;20837362;28;20057;-65
2023/04/08 00:31:18;;;;;;;10.23;1.65;;;;;;;;;;20837519;28;20513;-65
2023/04/08 00:41:19;;;;;;;4.53;1.40;;;;;;;;;;20835297;28;20136;-66
2023/04/08 00:51:21;;;;;;;7.82;3.20;;;;;;;;;;20835714;28;20042;-66
2023/04/08 01:01:32;;;;;;;6.15;2.38;;;;;;;;;;20834569;28;20152;-65
2023/04/08 01:11:34;;;;;;;7.40;2.08;;;;;;;;;;20834269;28;20196;-65
2023/04/08 01:21:37;;;;;;;3.67;1.65;;;;;;;;;;20832019;28;20055;-65
2023/04/08 01:31:40;;;;;;;5.03;1.67;;;;;;;;;;20832976;28;20050;-65
2023/04/08 01:41:41;;;;;;;5.20;1.50;;;;;;;;;;20832112;28;20045;-66
2023/04/08 01:51:44;;;;;;;6.97;1.55;;;;;;;;;;20830547;28;20140;-66
2023/04/08 02:01:47;;;;;;;7.88;3.15;;;;;;;;;;20829776;28;20050;-66
2023/04/08 02:11:48;;;;;;;6.63;1.98;;;;;;;;;;20830730;28;20475;-65
2023/04/08 02:21:54;;;;;;;6.28;2.30;;;;;;;;;;20842847;28;20053;-66
2023/04/08 02:31:56;;;;;;;6.13;1.73;;;;;;;;;;20846821;28;20447;-65
2023/04/08 02:41:58;;;;;;;9.65;1.50;;;;;;;;;;20845908;28;20107;-65
2023/04/08 02:52:00;;;;;;;3.25;1.55;;;;;;;;;;20845292;28;20041;-65
2023/04/08 03:02:02;;;;;;;4.25;1.60;;;;;;;;;;20844352;28;20046;-65
2023/04/08 03:12:03;;;;;;;5.60;1.83;;;;;;;;;;20843482;28;20045;-65
2023/04/08 03:22:05;;;;;;;7.68;1.27;;;;;;;;;;20841420;28;20053;-65
2023/04/08 03:32:07;;;;;;;4.00;1.23;;;;;;;;;;20842012;28;20418;-66
2023/04/08 03:42:09;;;;;;;5.97;1.30;;;;;;;;;;20841409;28;20403;-65
2023/04/08 03:52:10;;;;;;;3.22;1.20;;;;;;;;;;20840440;28;20065;-66
2023/04/08 04:02:12;;;;;;;3.22;0.82;;;;;;;;;;20839562;28;20064;-65
2023/04/08 04:12:14;;;;;;;3.90;1.13;;;;;;;;;;20839127;28;20140;-65
2023/04/08 04:22:16;;;;;;;4.80;0.98;;;;;;;;;;20837353;28;20387;-65
2023/04/08 04:32:18;;;;;;;1.85;0.73;;;;;;;;;;20837631;28;20516;-64
2023/04/08 04:42:19;;;;;;;2.67;0.75;;;;;;;;;;20836151;28;20054;-65
2023/04/08 04:52:21;;;;;;;3.20;0.95;;;;;;;;;;20835817;28;20439;-65
2023/04/08 05:02:23;;;;;;;1.92;0.68;;;;;;;;;;20835017;28;20045;-65
2023/04/08 05:12:24;;;;;;;1.67;0.88;;;;;;;;;;20834489;28;20406;-66
2023/04/08 05:22:26;;;;;;;2.92;1.13;;;;;;;;;;20832270;28;20045;-64
2023/04/08 05:32:28;;;;;;;2.33;0.90;;;;;;;;;;20831705;28;20053;-64
2023/04/08 05:42:31;;;;;;;2.65;0.80;;;;;;;;;;20832009;28;20144;-65
2023/04/08 05:52:32;;;;;;;1.45;0.50;;;;;;;;;;20829372;28;20059;-65
2023/04/08 06:02:34;;;;;;;2.45;1.10;;;;;;;;;;20831036;28;20542;-65
2023/04/08 06:12:39;;;;;;;1.25;0.70;;;;;;;;;;20830855;28;20132;-65
2023/04/08 06:22:40;;;;;;;2.22;0.90;;;;;;;;;;20829010;28;20057;-65
2023/04/08 06:32:42;;;;;;;3.15;1.08;;;;;;;;;;20830046;28;20121;-65
2023/04/08 06:42:43;;;;;;;3.70;0.85;;;;;;;;;;20829461;28;20608;-64
2023/04/08 06:52:45;;;;;;;3.65;0.95;;;;;;;;;;20828640;28;20508;-65
2023/04/08 07:02:46;;;;;;;4.18;1.00;;;;;;;;;;20833327;28;20052;-65
2023/04/08 07:12:48;;;;;;;2.85;0.95;;;;;;;;;;20843587;28;20461;-68
2023/04/08 07:22:49;;;;;;;5.25;1.17;;;;;;;;;;20842221;28;20136;-65
2023/04/08 07:32:54;;;;;;;4.75;1.40;;;;;;;;;;20842167;28;20107;-65
2023/04/08 07:42:56;;;;;;;4.18;1.38;;;;;;;;;;20839385;28;20049;-65
2023/04/08 07:52:57;;;;;;;5.70;1.42;;;;;;;;;;20839329;28;20099;-65
2023/04/08 08:02:58;;;;;;;3.72;1.50;;;;;;;;;;20838951;28;20045;-65
2023/04/08 08:13:00;;;;;;;3.72;1.60;;;;;;;;;;20837268;28;20499;-66
2023/04/08 08:23:01;;;;;;;2.85;1.20;;;;;;;;;;20836616;28;20136;-65
2023/04/08 08:33:03;;;;;;;4.43;1.10;;;;;;;;;;20837616;28;20081;-65
2023/04/08 08:43:05;;;;;;;3.65;1.77;;;;;;;;;;20836491;28;20100;-65
2023/04/08 08:53:07;;;;;;;1.88;0.93;;;;;;;;;;20833576;28;20144;-65
2023/04/08 09:03:17;;;;;;;3.47;1.00;;;;;;;;;;20834929;28;20542;-65
2023/04/08 09:13:19;;;;;;;1.73;0.90;;;;;;;;;;20832694;28;20053;-66
2023/04/08 09:23:20;;;;;;;5.95;1.42;;;;;;;;;;20831729;28;20050;-65
2023/04/08 09:33:30;;;;;;;5.25;1.13;;;;;;;;;;20832759;28;20482;-66
2023/04/08 09:43:33;;;;;;;3.42;1.60;;;;;;;;;;20832103;28;20041;-65
2023/04/08 09:53:37;;;;;;;5.35;1.33;;;;;;;;;;20830753;28;20045;-65
2023/04/08 10:03:48;;;;;;;3.30;1.25;;;;;;;;;;20831171;28;20478;-65
2023/04/08 10:13:50;;;;;;;6.47;1.52;;;;;;;;;;20830401;28;20399;-64
2023/04/08 10:23:58;;;;;;;1.88;0.85;;;;;;;;;;20829103;28;20103;-65
2023/04/08 10:34:16;;;;;;;2.08;0.88;;;;;;;;;;20829575;28;20049;-65
2023/04/08 10:44:18;;;;;;;1.90;0.93;;;;;;;;;;20844122;28;20056;-66
2023/04/08 10:54:19;;;;;;;2.80;0.90;;;;;;;;;;20844943;28;20064;-65
2023/04/08 11:04:22;;;;;;;1.98;0.80;;;;;;;;;;20844164;28;20407;-65
2023/04/08 11:14:25;;;;;;;2.38;0.90;;;;;;;;;;20843370;28;20585;-66
2023/04/08 11:24:27;;;;;;;2.42;0.65;;;;;;;;;;20842997;28;20052;-66
2023/04/08 11:34:29;;;;;;;3.22;0.60;;;;;;;;;;20842075;28;20045;-68
2023/04/08 11:44:31;;;;;;;2.17;0.77;;;;;;;;;;20840904;28;20099;-65
2023/04/08 11:54:33;;;;;;;2.65;0.60;;;;;;;;;;20839480;28;20049;-65
2023/04/08 12:04:35;;;;;;;2.25;0.57;;;;;;;;;;20840008;28;20053;-65
2023/04/08 12:14:36;;;;;;;3.38;1.30;;;;;;;;;;20839033;28;20537;-66
2023/04/08 12:24:38;;;;;;;1.38;0.60;;;;;;;;;;20838419;28;20398;-66
2023/04/08 12:34:40;;;;;;;3.90;1.02;;;;;;;;;;20837337;28;20049;-66
2023/04/08 12:44:41;;;;;;;1.10;0.70;;;;;;;;;;20834526;28;20049;-65
2023/04/08 12:54:43;;;;;;;4.15;0.98;;;;;;;;;;20835535;28;20053;-65
2023/04/08 13:04:45;;;;;;;1.63;0.50;;;;;;;;;;20833971;28;20430;-65
2023/04/08 13:14:47;;;;;;;4.63;1.00;;;;;;;;;;20833748;28;20522;-66
2023/04/08 13:24:48;;;;;;;1.70;0.70;;;;;;;;;;20834234;28;20046;-64
2023/04/08 13:34:50;;;;;;;3.03;1.35;;;;;;;;;;20831823;28;20046;-63
2023/04/08 13:44:52;;;;;;;1.85;0.85;;;;;;;;;;20831935;28;20045;-63
2023/04/08 13:54:53;;;;;;;1.88;0.68;;;;;;;;;;20831274;28;20495;-63
2023/04/08 14:04:55;;;;;;;3.05;0.70;;;;;;;;;;20831638;28;20517;-63
2023/04/08 14:14:57;;;;;;;1.88;1.02;;;;;;;;;;20840181;28;20049;-63
2023/04/08 14:24:58;;;;;;;1.10;0.65;;;;;;;;;;20847364;28;20041;-64
2023/04/08 14:35:00;;;;;;;2.88;1.58;;;;;;;;;;20846812;28;20054;-63
2023/04/08 14:45:02;;;;;;;4.63;0.65;;;;;;;;;;20844759;28;20406;-64
2023/04/08 14:55:04;;;;;;;4.85;1.33;;;;;;;;;;20845126;28;20065;-63
2023/04/08 15:05:05;;;;;;;1.10;0.52;;;;;;;;;;20841663;28;20045;-63
2023/04/08 15:15:08;;;;;;;3.40;0.57;;;;;;;;;;20840605;28;20057;-63
2023/04/08 15:25:10;;;;;;;1.85;0.77;;;;;;;;;;20839435;28;20387;-64
2023/04/08 15:35:11;;;;;;;3.35;0.60;;;;;;;;;;20841515;28;20041;-63
2023/04/08 15:45:13;;;;;;;1.50;0.60;;;;;;;;;;20841377;28;20053;-63
2023/04/08 15:55:15;;;;;;;1.35;0.60;;;;;;;;;;20839277;28;20359;-63
2023/04/08 16:05:16;;;;;;;1.38;0.80;;;;;;;;;;20837146;28;20060;-63
2023/04/08 16:15:18;;;;;;;3.60;0.82;;;;;;;;;;20838302;28;20065;-63
2023/04/08 16:25:20;;;;;;;1.63;0.70;;;;;;;;;;20836961;28;20051;-63
2023/04/08 16:35:21;;;;;;;2.28;1.00;;;;;;;;;;20835282;28;20056;-63
2023/04/08 16:45:23;;;;;;;2.00;0.70;;;;;;;;;;20836271;28;20042;-64
2023/04/08 16:55:24;;;;;;;2.88;0.60;;;;;;;;;;20835155;28;20046;-64
2023/04/08 17:05:26;;;;;;;0.88;0.50;;;;;;;;;;20832632;28;20045;-63
2023/04/08 17:15:28;;;;;;;3.08;0.60;;;;;;;;;;20832764;28;20068;-63
2023/04/08 17:25:30;;;;;;;5.50;1.88;;;;;;;;;;20832918;28;20127;-63
2023/04/08 17:35:31;;;;;;;2.88;1.20;;;;;;;;;;20831375;28;20406;-63
2023/04/08 17:45:33;;;;;;;2.80;1.00;;;;;;;;;;20831207;28;20128;-63
2023/04/08 17:55:35;;;;;;;4.45;1.42;;;;;;;;;;20830952;28;20103;-64
2023/04/08 18:05:37;;;;;;;1.85;0.90;;;;;;;;;;20830198;28;20052;-64
2023/04/08 18:15:39;;;;;;;2.33;1.10;;;;;;;;;;20828063;28;20137;-63
2023/04/08 18:25:43;;;;;;;2.28;1.10;;;;;;;;;;20829308;28;20522;-63
2023/04/08 18:35:44;;;;;;;4.07;1.65;;;;;;;;;;20827825;28;20060;-63
2023/04/08 18:45:46;;;;;;;4.10;1.30;;;;;;;;;;20828166;28;20187;-64
2023/04/08 18:55:48;;;;;;;2.50;1.40;;;;;;;;;;20828557;28;20049;-63
2023/04/08 19:05:50;;;;;;;2.47;1.30;;;;;;;;;;20843037;28;20518;-63
2023/04/08 19:15:51;;;;;;;5.78;1.50;;;;;;;;;;20841107;28;20459;-64
2023/04/08 19:25:53;;;;;;;5.25;1.80;;;;;;;;;;20842445;28;20136;-63
2023/04/08 19:35:55;;;;;;;6.90;1.90;;;;;;;;;;20841007;28;20060;-63
2023/04/08 19:45:57;;;;;;;6.93;2.53;;;;;;;;;;20841980;28;20501;-63
2023/04/08 19:56:00;;;;;;;5.97;3.20;;;;;;;;;;20840710;28;20175;-64
2023/04/08 20:06:01;;;;;;;6.15;2.97;;;;;;;;;;20838826;28;20046;-63
2023/04/08 20:16:03;;;;;;;5.53;2.83;;;;;;;;;;20837236;28;20053;-63
2023/04/08 20:26:05;;;;;;;10.40;3.00;;;;;;;;;;20837837;28;20045;-63
2023/04/08 20:36:06;;;;;;;8.68;3.10;;;;;;;;;;20837482;28;20122;-64
2023/04/08 20:46:08;;;;;;;6.10;2.80;;;;;;;;;;20836792;28;20064;-64
2023/04/08 20:56:09;;;;;;;15.57;4.35;;;;;;;;;;20835351;28;20132;-63
2023/04/08 21:06:18;;;;;;;8.82;3.88;;;;;;;;;;20832978;28;20132;-63
2023/04/08 21:16:19;;;;;;;6.72;3.40;;;;;;;;;;20832282;28;20069;-62
2023/04/08 21:26:21;;;;;;;8.38;2.80;;;;;;;;;;20832547;28;20046;-64
2023/04/08 21:36:23;;;;;;;4.18;1.80;;;;;;;;;;20832858;28;20498;-63
2023/04/08 21:46:24;;;;;;;8.02;2.15;;;;;;;;;;20832680;28;20045;-62
2023/04/08 21:56:26;;;;;;;5.68;1.65;;;;;;;;;;20832136;28;20050;-64
2023/04/08 22:06:28;;;;;;;7.75;2.15;;;;;;;;;;20831735;28;20445;-63
2023/04/08 22:16:30;;;;;;;4.63;1.98;;;;;;;;;;20831095;28;20063;-63
2023/04/08 22:26:32;;;;;;;8.23;2.53;;;;;;;;;;20831021;28;20050;-63
2023/04/08 22:36:34;;;;;;;6.93;2.33;;;;;;;;;;20840420;28;20453;-64
2023/04/08 22:46:35;;;;;;;5.10;2.42;;;;;;;;;;20845980;28;20136;-62
2023/04/08 22:56:37;;;;;;;4.35;2.00;;;;;;;;;;20845541;28;20511;-62
2023/04/08 23:06:38;;;;;;;5.65;1.55;;;;;;;;;;20844980;28;20128;-63
2023/04/08 23:16:40;;;;;;;2.92;1.23;;;;;;;;;;20843711;28;20115;-63
2023/04/08 23:26:41;;;;;;;5.72;1.42;;;;;;;;;;20843802;28;20558;-62
2023/04/08 23:36:43;;;;;;;6.90;1.10;;;;;;;;;;20843005;28;20517;-64
2023/04/08 23:46:44;;;;;;;3.80;1.30;;;;;;;;;;20841913;28;20131;-64
2023/04/08 23:56:46;;;;;;;3.83;1.02;;;;;;;;;;20841332;28;20060;-62
